GW1361 Weather Reports


Display with metric or nautical units.
time (UTC)temp
F
wind
direction
speed
MPH
gust
MPH
rain 1hr
in
rain 24hr
in
rain mn
in
humidity
%
barometer
mb
20230206161352 40 21 3.0 3.0 0.00 0.00 0.00 27 1011.6
20230206160852 41 41 2.0 3.0 0.00 0.00 0.00 27 1011.9
20230206160351 41 16 3.0 5.0 0.00 0.00 0.00 27 1011.7
20230206155849 40 28 2.0 2.0 0.00 0.00 0.00 28 1011.6
20230206155348 40 352 1.0 2.0 0.00 0.00 0.00 28 1011.4
20230206154846 40 18 2.0 5.0 0.00 0.00 0.00 29 1011.4
20230206154345 40 60 3.0 5.0 0.00 0.00 0.00 29 1011.2
20230206153843 39 303 2.0 3.0 0.00 0.00 0.00 30 1011.2
20230206153340 39 249 5.0 7.0 0.00 0.00 0.00 30 1010.8
20230206152839 39 340 4.0 8.0 0.00 0.00 0.00 31 1011.0
20230206152339 38 260 4.0 5.0 0.00 0.00 0.00 31 1010.8
20230206151837 38 300 3.0 5.0 0.00 0.00 0.00 31 1010.7
20230206151336 38 184 4.0 6.0 0.00 0.00 0.00 31 1010.6
20230206150834 38 285 6.0 9.0 0.00 0.00 0.00 31 1010.5
20230206150332 38 279 7.0 9.0 0.00 0.00 0.00 31 1010.6
20230206145831 38 220 3.0 3.0 0.00 0.00 0.00 31 1010.4
20230206145328 37 70 3.0 5.0 0.00 0.00 0.00 34 1010.6
20230206144826 37 325 5.0 7.0 0.00 0.00 0.00 35 1010.5
20230206144323 36 8 1.0 1.0 0.00 0.00 0.00 37 1010.5
20230206143820 35 359 1.0 1.0 0.00 0.00 0.00 39 1010.5
20230206143318 35 318 0.0 1.0 0.00 0.00 0.00 40 1010.5
20230206142816 35 17 0.0 0.0 0.00 0.00 0.00 39 1010.3
20230206142314 36 11 0.0 1.0 0.00 0.00 0.00 39 1010.0
20230206141813 36 13 0.0 0.0 0.00 0.00 0.00 39 1010.1
20230206141312 35 13 1.0 1.0 0.00 0.00 0.00 41 1009.9
20230206140809 35 5 0.0 1.0 0.00 0.00 0.00 44 1010.1
20230206140307 34 26 0.0 1.0 0.00 0.00 0.00 45 1009.9
20230206135805 35 351 0.0 1.0 0.00 0.00 0.00 50 1009.9
20230206135306 35 37 1.0 1.0 0.00 0.00 0.00 49 1009.9
20230206134803 37 18 0.0 0.0 0.00 0.00 0.00 39 1009.5
20230206134301 36 22 0.0 1.0 0.00 0.00 0.00 41 1009.4
20230206133758 36 23 0.0 0.0 0.00 0.00 0.00 43 1009.3
20230206133256 36 225 2.0 2.0 0.00 0.00 0.00 41 1009.3
20230206132755 36 318 0.0 1.0 0.00 0.00 0.00 43 1009.3
20230206132254 36 15 0.0 0.0 0.00 0.00 0.00 46 1009.4
20230206131752 36 355 3.0 3.0 0.00 0.00 0.00 43 1009.4
20230206131252 35 229 1.0 2.0 0.00 0.00 0.00 47 1009.5
20230206130751 35 326 1.0 1.0 0.00 0.00 0.00 51 1009.4
20230206130251 35 11 0.0 0.0 0.00 0.00 0.00 52 1009.2
20230206125751 34 15 0.0 0.0 0.00 0.00 0.00 57 1009.3
20230206125250 34 34 0.0 1.0 0.00 0.00 0.00 55 1009.3
20230206124747 35 42 1.0 1.0 0.00 0.00 0.00 54 1009.2
20230206124247 35 107 3.0 3.0 0.00 0.00 0.00 51 1009.1
20230206123745 35 56 1.0 1.0 0.00 0.00 0.00 52 1008.8
20230206123246 35 16 1.0 2.0 0.00 0.00 0.00 54 1008.8
20230206122744 34 338 1.0 2.0 0.00 0.00 0.00 56 1009.0
20230206122242 34 44 1.0 1.0 0.00 0.00 0.00 56 1009.0
20230206121741 34 329 2.0 2.0 0.00 0.00 0.00 57 1008.8
20230206121241 36 83 2.0 2.0 0.00 0.00 0.00 56 1008.7
20230206120740 38 21 0.0 1.0 0.00 0.00 0.00 50 1008.6
20230206120238 39 28 2.0 2.0 0.00 0.00 0.00 42 1008.5
20230206115736 39 11 5.0 6.0 0.00 0.00 0.00 42 1008.2
20230206115236 39 345 4.0 6.0 0.00 0.00 0.00 44 1008.0
20230206114735 39 215 4.0 6.0 0.00 0.00 0.00 45 1007.8
20230206114235 38 354 5.0 9.0 0.00 0.00 0.00 47 1007.7
20230206113733 39 7 4.0 7.0 0.00 0.00 0.00 49 1007.7
20230206113231 39 337 7.0 11.0 0.00 0.00 0.00 49 1007.5
20230206112731 39 283 3.0 8.0 0.00 0.00 0.00 52 1007.4
20230206112229 38 224 5.0 7.0 0.00 0.00 0.00 57 1007.5
20230206111729 38 339 2.0 3.0 0.00 0.00 0.00 60 1007.2
20230206111227 38 320 2.0 2.0 0.00 0.00 0.00 55 1007.1
20230206110726 38 236 3.0 7.0 0.00 0.00 0.00 52 1007.2
20230206110226 38 357 0.0 1.0 0.00 0.00 0.00 51 1007.1
20230206105725 37 359 0.0 1.0 0.00 0.00 0.00 50 1007.1
20230206105225 36 29 1.0 1.0 0.00 0.00 0.00 51 1006.8
20230206104724 33 355 0.0 0.0 0.00 0.00 0.00 55 1006.9
20230206104223 28 11 0.0 1.0 0.00 0.00 0.00 65 1007.1
20230206103722 27 12 0.0 1.0 0.00 0.00 0.00 66 1006.9
20230206103220 27 14 0.0 0.0 0.00 0.00 0.00 67 1006.9
20230206102720 27 13 0.0 1.0 0.00 0.00 0.00 69 1007.1
20230206102218 26 11 0.0 1.0 0.00 0.00 0.00 68 1007.1
20230206101717 25 83 3.0 3.0 0.00 0.00 0.00 71 1006.8
20230206101215 26 6 0.0 1.0 0.00 0.00 0.00 71 1007.1
20230206100714 26 11 0.0 0.0 0.00 0.00 0.00 69 1006.7
20230206100213 26 14 0.0 1.0 0.00 0.00 0.00 68 1006.8
20230206095712 26 10 0.0 0.0 0.00 0.00 0.00 70 1006.8
20230206095210 25 10 0.0 0.0 0.00 0.00 0.00 70 1007.1
20230206094709 25 10 0.0 0.0 0.00 0.00 0.00 69 1007.1
20230206094207 25 9 0.0 1.0 0.00 0.00 0.00 70 1007.2
20230206093704 26 32 0.0 0.0 0.00 0.00 0.00 69 1006.9
20230206093203 26 26 0.0 0.0 0.00 0.00 0.00 68 1007.1
20230206092701 26 3 0.0 0.0 0.00 0.00 0.00 68 1007.3
20230206092200 26 14 0.0 0.0 0.00 0.00 0.00 68 1007.2
20230206091658 26 355 0.0 1.0 0.00 0.00 0.00 68 1007.3
20230206091157 26 9 0.0 0.0 0.00 0.00 0.00 69 1007.3
20230206090655 26 10 0.0 0.0 0.00 0.00 0.00 68 1007.3
20230206090154 26 9 0.0 0.0 0.00 0.00 0.00 68 1007.4
20230206085653 26 4 0.0 0.0 0.00 0.00 0.00 69 1007.5
20230206085152 26 1 0.0 1.0 0.00 0.00 0.00 69 1007.5
20230206084649 25 4 1.0 1.0 0.00 0.00 0.00 72 1007.7
20230206084147 25 5 0.0 0.0 0.00 0.00 0.00 74 1007.7
20230206083646 25 6 0.0 0.0 0.00 0.00 0.00 75 1007.8
20230206083144 25 8 0.0 1.0 0.00 0.00 0.00 75 1007.8
20230206082643 25 33 0.0 1.0 0.00 0.00 0.00 74 1007.7
20230206082143 26 1 1.0 1.0 0.00 0.00 0.00 73 1007.7
20230206081642 26 9 0.0 0.0 0.00 0.00 0.00 73 1007.8
20230206081142 26 28 0.0 0.0 0.00 0.00 0.00 74 1007.8
20230206080641 26 30 0.0 0.0 0.00 0.00 0.00 74 1007.9
20230206080140 26 3 1.0 1.0 0.00 0.00 0.00 72 1007.9
20230206075638 27 26 0.0 0.0 0.00 0.00 0.00 72 1007.9
20230206075137 27 26 0.0 0.0 0.00 0.00 0.00 71 1008.2
20230206074635 28 8 0.0 0.0 0.00 0.00 0.00 68 1008.2
20230206074135 28 7 0.0 1.0 0.00 0.00 0.00 67 1008.2
20230206073631 29 8 0.0 0.0 0.00 0.00 0.00 66 1008.2
20230206073129 29 14 0.0 0.0 0.00 0.00 0.00 66 1008.6
20230206072629 29 16 0.0 0.0 0.00 0.00 0.00 64 1008.5
20230206072129 26 351 2.0 2.0 0.00 0.00 0.00 68 1008.7
20230206071157 26 18 0.0 0.0 0.00 0.00 0.00 76 1008.7
20230206070657 26 18 0.0 0.0 0.00 0.00 0.00 76 1008.7
20230206070156 26 17 0.0 0.0 0.00 0.00 0.00 76 1008.8
20230206065655 26 19 0.0 0.0 0.00 0.00 0.00 76 1008.8
20230206065153 26 28 0.0 0.0 0.00 0.00 0.00 76 1009.0
20230206064652 26 22 0.0 0.0 0.00 0.00 0.00 77 1008.8
20230206064151 26 13 0.0 0.0 0.00 0.00 0.00 78 1009.0
20230206063649 26 15 0.0 0.0 0.00 0.00 0.00 78 1009.3
20230206063148 26 358 0.0 1.0 0.00 0.00 0.00 78 1009.2
20230206062647 26 10 0.0 1.0 0.00 0.00 0.00 78 1009.3
20230206062147 26 8 1.0 1.0 0.00 0.00 0.00 79 1009.3
20230206061646 27 12 0.0 0.0 0.00 0.00 0.00 78 1009.4
20230206061145 27 29 0.0 1.0 0.00 0.00 0.00 77 1009.4
20230206060644 28 6 0.0 0.0 0.00 0.00 0.00 75 1009.4
20230206060144 28 13 0.0 0.0 0.00 0.00 0.00 75 1009.4
20230206055642 28 11 1.0 1.0 0.00 0.00 0.00 75 1009.5
20230206055142 27 12 0.0 0.0 0.00 0.00 0.00 77 1009.5
20230206054640 27 3 0.0 1.0 0.00 0.00 0.00 79 1009.5
20230206054138 27 25 0.0 0.0 0.00 0.00 0.00 79 1009.4
20230206053637 27 10 0.0 0.0 0.00 0.00 0.00 79 1009.7
20230206053137 28 33 0.0 0.0 0.00 0.00 0.00 80 1009.7
20230206052636 28 5 0.0 1.0 0.00 0.00 0.00 80 1009.9
20230206052135 27 356 1.0 1.0 0.00 0.00 0.00 80 1009.9
20230206051635 28 8 0.0 0.0 0.00 0.00 0.00 79 1010.0
20230206051135 28 28 0.0 0.0 0.00 0.00 0.00 79 1009.9
20230206050633 28 14 0.0 0.0 0.00 0.00 0.00 80 1010.1
20230206050132 28 12 0.0 0.0 0.00 0.00 0.00 79 1010.0
20230206045631 28 357 1.0 1.0 0.00 0.00 0.00 80 1010.0
20230206045131 28 10 0.0 1.0 0.00 0.00 0.00 79 1010.3
20230206044629 28 32 0.0 0.0 0.00 0.00 0.00 79 1010.3
20230206044127 28 25 0.0 0.0 0.00 0.00 0.00 80 1010.1
20230206043626 28 6 0.0 0.0 0.00 0.00 0.00 80 1010.3
20230206043125 28 6 0.0 0.0 0.00 0.00 0.00 81 1010.3
20230206042624 28 5 0.0 0.0 0.00 0.00 0.00 80 1010.4
20230206042124 28 11 0.0 0.0 0.00 0.00 0.00 80 1010.0
20230206041623 28 11 0.0 0.0 0.00 0.00 0.00 80 1010.1
20230206041122 28 11 0.0 0.0 0.00 0.00 0.00 79 1010.0
20230206040620 28 11 0.0 0.0 0.00 0.00 0.00 80 1010.0
20230206040119 28 11 0.0 0.0 0.00 0.00 0.00 80 1010.3
20230206035617 28 9 0.0 0.0 0.00 0.00 0.00 80 1010.3
20230206035115 28 10 0.0 0.0 0.00 0.00 0.00 80 1010.4
20230206034614 29 10 0.0 0.0 0.00 0.00 0.00 79 1010.3
20230206034114 29 10 0.0 0.0 0.00 0.00 0.00 79 1010.3
20230206033614 29 18 0.0 0.0 0.00 0.00 0.00 79 1010.3
20230206033113 29 19 0.0 0.0 0.00 0.00 0.00 79 1010.5
20230206032612 29 18 0.0 0.0 0.00 0.00 0.00 78 1010.6
20230206032111 29 18 0.0 0.0 0.00 0.00 0.00 78 1010.7
20230206031609 30 19 0.0 0.0 0.00 0.00 0.00 78 1010.6
20230206031108 30 18 0.0 0.0 0.00 0.00 0.00 77 1010.7
20230206030607 30 20 0.0 0.0 0.00 0.00 0.00 76 1010.7
20230206030105 31 19 0.0 0.0 0.00 0.00 0.00 75 1010.7
20230206025603 31 30 0.0 0.0 0.00 0.00 0.00 74 1010.8
20230206025101 32 32 1.0 1.0 0.00 0.00 0.00 74 1010.8
20230206024602 32 15 0.0 0.0 0.00 0.00 0.00 73 1011.0
20230206024101 32 19 0.0 0.0 0.00 0.00 0.00 73 1010.8
20230206023559 32 29 0.0 0.0 0.00 0.00 0.00 72 1010.7
20230206023100 33 31 1.0 1.0 0.00 0.00 0.00 72 1011.2
20230206022558 33 11 0.0 0.0 0.00 0.00 0.00 71 1011.0
20230206022057 33 11 0.0 0.0 0.00 0.00 0.00 71 1010.8
20230206021556 33 11 0.0 0.0 0.00 0.00 0.00 70 1011.0
20230206021055 34 7 0.0 0.0 0.00 0.00 0.00 68 1011.1
20230206020554 34 13 0.0 0.0 0.00 0.00 0.00 68 1011.2
20230206020052 34 14 0.0 0.0 0.00 0.00 0.00 67 1011.3
20230206015550 35 12 0.0 0.0 0.00 0.00 0.00 66 1011.1
20230206015048 35 13 0.0 0.0 0.00 0.00 0.00 65 1011.2
20230206014547 35 13 0.0 0.0 0.00 0.00 0.00 65 1011.3
20230206014046 35 12 0.0 0.0 0.00 0.00 0.00 65 1011.2
20230206013544 36 8 0.0 0.0 0.00 0.00 0.00 63 1011.2
20230206013044 36 11 0.0 0.0 0.00 0.00 0.00 62 1011.4
20230206012543 37 10 0.0 0.0 0.00 0.00 0.00 60 1011.3
20230206012041 37 10 0.0 0.0 0.00 0.00 0.00 60 1011.1
20230206011540 38 9 0.0 0.0 0.00 0.00 0.00 60 1011.2
20230206011038 38 9 0.0 0.0 0.00 0.00 0.00 58 1011.2
20230206010537 39 15 0.0 0.0 0.00 0.00 0.00 56 1011.2
20230206010037 39 15 0.0 0.0 0.00 0.00 0.00 55 1011.1
20230206005536 40 3 0.0 1.0 0.00 0.00 0.00 53 1011.0
20230206005035 41 24 0.0 1.0 0.00 0.00 0.00 52 1011.3
20230206004533 41 17 0.0 0.0 0.00 0.00 0.00 52 1011.3
20230206004033 42 20 1.0 1.0 0.00 0.00 0.00 50 1011.1
20230206003531 42 32 0.0 0.0 0.00 0.00 0.00 49 1011.2
20230206003029 42 13 0.0 0.0 0.00 0.00 0.00 48 1010.8
20230206002528 43 13 0.0 1.0 0.00 0.00 0.00 47 1010.8
20230206002027 44 13 0.0 1.0 0.00 0.00 0.00 46 1010.7
20230206001526 44 14 0.0 0.0 0.00 0.00 0.00 45 1011.0
20230206001027 45 14 0.0 0.0 0.00 0.00 0.00 44 1010.8
20230206000525 46 13 0.0 0.0 0.00 0.00 0.00 43 1011.0
20230206000025 46 30 0.0 0.0 0.00 0.00 0.00 42 1010.7
20230205235524 46 15 0.0 0.0 0.00 0.00 0.00 42 1011.0
20230205235022 47 29 0.0 0.0 0.00 0.00 0.00 42 1011.0
20230205234522 47 41 1.0 1.0 0.00 0.00 0.00 41 1010.8
20230205234021 48 20 1.0 1.0 0.00 0.00 0.00 40 1011.2
20230205233520 48 11 1.0 1.0 0.00 0.00 0.00 39 1011.2
20230205233020 48 17 1.0 1.0 0.00 0.00 0.00 39 1011.2
20230205232520 49 57 0.0 1.0 0.00 0.00 0.00 38 1011.3
20230205232018 49 17 2.0 2.0 0.00 0.00 0.00 38 1011.3
20230205231517 50 32 0.0 1.0 0.00 0.00 0.00 37 1011.1
20230205231017 50 13 3.0 3.0 0.00 0.00 0.00 35 1011.3
20230205230515 51 29 0.0 1.0 0.00 0.00 0.00 36 1011.2
20230205230015 51 21 1.0 2.0 0.00 0.00 0.00 35 1011.4
20230205225514 51 13 0.0 1.0 0.00 0.00 0.00 34 1011.3
20230205225012 51 14 0.0 0.0 0.00 0.00 0.00 33 1011.6
20230205224511 52 25 1.0 1.0 0.00 0.00 0.00 34 1011.3
20230205224010 52 13 2.0 2.0 0.00 0.00 0.00 33 1011.4
20230205223510 53 28 1.0 1.0 0.00 0.00 0.00 32 1011.8
20230205223008 52 48 1.0 1.0 0.00 0.00 0.00 33 1011.6
20230205222507 53 24 1.0 1.0 0.00 0.00 0.00 32 1011.6
20230205222005 52 17 1.0 1.0 0.00 0.00 0.00 31 1011.6
20230205221504 53 65 4.0 5.0 0.00 0.00 0.00 30 1011.8
20230205221003 52 22 1.0 1.0 0.00 0.00 0.00 32 1011.7
20230205220502 52 38 0.0 0.0 0.00 0.00 0.00 33 1012.0
20230205220002 52 18 0.0 1.0 0.00 0.00 0.00 33 1012.1
20230205215501 53 17 1.0 2.0 0.00 0.00 0.00 34 1012.1
20230205215001 52 8 3.0 3.0 0.00 0.00 0.00 33 1012.1
20230205214459 52 20 1.0 2.0 0.00 0.00 0.00 33 1012.3
20230205213957 52 349 2.0 2.0 0.00 0.00 0.00 31 1012.6
20230205213457 53 15 1.0 2.0 0.00 0.00 0.00 28 1012.4
20230205212956 53 14 2.0 3.0 0.00 0.00 0.00 27 1012.5
20230205212456 54 22 3.0 3.0 0.00 0.00 0.00 26 1012.5
20230205211955 54 17 0.0 1.0 0.00 0.00 0.00 28 1012.5
20230205211453 53 36 0.0 1.0 0.00 0.00 0.00 26 1012.6
20230205210952 53 76 2.0 2.0 0.00 0.00 0.00 25 1012.6
20230205210451 55 26 0.0 0.0 0.00 0.00 0.00 24 1012.7
20230205205950 54 12 0.0 1.0 0.00 0.00 0.00 23 1012.6
20230205205450 54 29 0.0 0.0 0.00 0.00 0.00 23 1012.9
20230205204948 53 16 1.0 2.0 0.00 0.00 0.00 23 1012.9
20230205204446 52 338 3.0 3.0 0.00 0.00 0.00 23 1013.2
20230205203945 52 15 2.0 2.0 0.00 0.00 0.00 23 1013.4
20230205203444 53 345 3.0 3.0 0.00 0.00 0.00 24 1013.6
20230205202943 53 15 0.0 1.0 0.00 0.00 0.00 25 1013.8
20230205202443 52 351 2.0 2.0 0.00 0.00 0.00 26 1013.9
20230205201941 52 39 1.0 1.0 0.00 0.00 0.00 25 1014.0
20230205201441 52 14 1.0 1.0 0.00 0.00 0.00 26 1014.4
20230205200940 52 9 1.0 1.0 0.00 0.00 0.00 26 1014.3
20230205200439 52 20 0.0 1.0 0.00 0.00 0.00 27 1014.2
20230205195937 51 358 2.0 2.0 0.00 0.00 0.00 25 1014.6
20230205195435 51 349 2.0 2.0 0.00 0.00 0.00 26 1014.6
20230205194934 51 22 1.0 2.0 0.00 0.00 0.00 26 1014.7
20230205194434 51 18 0.0 0.0 0.00 0.00 0.00 26 1015.2
20230205193933 50 342 2.0 2.0 0.00 0.00 0.00 26 1015.2
20230205193432 49 82 3.0 3.0 0.00 0.00 0.00 28 1015.3
20230205192931 50 5 3.0 3.0 0.00 0.00 0.00 27 1015.6
20230205192429 49 11 2.0 2.0 0.00 0.00 0.00 28 1015.7
20230205191928 49 11 2.0 2.0 0.00 0.00 0.00 28 1015.9
20230205191426 49 61 2.0 2.0 0.00 0.00 0.00 27 1016.2
20230205190925 48 35 0.0 1.0 0.00 0.00 0.00 30 1016.3
20230205190425 48 16 1.0 2.0 0.00 0.00 0.00 30 1016.4
20230205185923 49 23 1.0 1.0 0.00 0.00 0.00 31 1016.6
20230205185527 48 7 2.0 2.0 0.00 0.00 0.00 30 1016.5
20230205185027 49 23 1.0 1.0 0.00 0.00 0.00 30 1016.8
20230205184526 47 7 2.0 2.0 0.00 0.00 0.00 31 1017.1
20230205184025 47 338 2.0 2.0 0.00 0.00 0.00 32 1017.0
20230205183525 48 12 2.0 2.0 0.00 0.00 0.00 30 1017.1
20230205183023 47 47 0.0 1.0 0.00 0.00 0.00 31 1017.2
20230205182522 46 24 0.0 1.0 0.00 0.00 0.00 32 1017.5
20230205182021 46 353 2.0 3.0 0.00 0.00 0.00 32 1017.6
20230205181521 46 357 1.0 1.0 0.00 0.00 0.00 32 1017.7
20230205181019 45 17 1.0 1.0 0.00 0.00 0.00 33 1017.6
20230205180519 45 334 1.0 2.0 0.00 0.00 0.00 34 1017.9
20230205180018 44 9 1.0 2.0 0.00 0.00 0.00 35 1017.7
20230205175517 44 20 0.0 0.0 0.00 0.00 0.00 35 1017.8
20230205175015 44 328 2.0 2.0 0.00 0.00 0.00 35 1018.2
20230205174514 45 26 0.0 0.0 0.00 0.00 0.00 35 1018.0
20230205174013 44 358 1.0 1.0 0.00 0.00 0.00 33 1018.3
20230205173512 44 33 0.0 0.0 0.00 0.00 0.00 35 1018.3
20230205173011 43 72 2.0 2.0 0.00 0.00 0.00 36 1018.3
20230205172510 42 18 1.0 1.0 0.00 0.00 0.00 38 1018.8
20230205172009 42 19 1.0 1.0 0.00 0.00 0.00 38 1018.4
20230205171507 42 22 1.0 1.0 0.00 0.00 0.00 39 1018.5
20230205171006 41 13 1.0 1.0 0.00 0.00 0.00 40 1018.6
20230205170506 41 3 3.0 3.0 0.00 0.00 0.00 41 1018.5
20230205170004 42 19 1.0 1.0 0.00 0.00 0.00 40 1018.5
20230205165504 41 23 0.0 1.0 0.00 0.00 0.00 40 1018.6
20230205165002 39 7 2.0 2.0 0.00 0.00 0.00 42 1018.6
20230205164502 40 21 3.0 3.0 0.00 0.00 0.00 42 1018.9
20230205164001 40 38 0.0 1.0 0.00 0.00 0.00 42 1018.8
20230205163500 40 359 1.0 1.0 0.00 0.00 0.00 42 1018.9
20230205162959 39 31 1.0 2.0 0.00 0.00 0.00 42 1018.6
20230205162459 37 19 2.0 2.0 0.00 0.00 0.00 43 1018.9
20230205161958 38 18 1.0 2.0 0.00 0.00 0.00 43 1018.8
20230205161457 38 318 5.0 6.0 0.00 0.00 0.00 40 1018.9